createdAt,value
2018-08-28T00:00:36.379Z,18.10
2018-08-28T00:01:39.699Z,18.00
2018-08-28T00:02:43.014Z,18.00
2018-08-28T00:03:46.351Z,18.00
2018-08-28T00:04:49.658Z,17.90
2018-08-28T00:05:52.990Z,17.90
2018-08-28T00:06:56.331Z,17.90
2018-08-28T00:07:59.634Z,17.90
2018-08-28T00:09:02.995Z,18.00
2018-08-28T00:10:06.543Z,18.00
2018-08-28T00:11:09.875Z,17.90
2018-08-28T00:12:13.196Z,18.00
2018-08-28T00:13:16.537Z,18.00
2018-08-28T00:14:19.863Z,18.10
2018-08-28T00:15:23.176Z,18.10
2018-08-28T00:16:26.539Z,18.10
2018-08-28T00:17:29.842Z,18.10
2018-08-28T00:18:33.156Z,18.20
2018-08-28T00:19:36.490Z,18.20
2018-08-28T00:20:39.869Z,18.20
2018-08-28T00:21:43.182Z,18.10
2018-08-28T00:22:46.499Z,18.10
2018-08-28T00:23:49.815Z,18.10
2018-08-28T00:24:53.115Z,18.10
2018-08-28T00:25:56.466Z,18.00
2018-08-28T00:26:59.778Z,17.80
2018-08-28T00:28:03.087Z,17.90
2018-08-28T00:29:06.431Z,17.90
2018-08-28T00:30:09.892Z,17.90
2018-08-28T00:31:13.335Z,17.90
2018-08-28T00:32:16.644Z,17.80
2018-08-28T00:33:19.939Z,17.80
2018-08-28T00:34:23.314Z,17.80
2018-08-28T00:35:26.635Z,17.70
2018-08-28T00:36:29.942Z,17.70
2018-08-28T00:37:33.253Z,17.80
2018-08-28T00:38:36.562Z,17.80
2018-08-28T00:39:39.912Z,17.60
2018-08-28T00:40:43.210Z,17.70
2018-08-28T00:41:46.530Z,17.70
2018-08-28T00:42:49.866Z,17.70
2018-08-28T00:43:53.176Z,17.70
2018-08-28T00:44:56.523Z,17.70
2018-08-28T00:45:59.822Z,17.80
2018-08-28T00:47:03.166Z,17.80
2018-08-28T00:48:06.473Z,17.70
2018-08-28T00:49:09.779Z,17.70
2018-08-28T00:50:13.134Z,17.70
2018-08-28T00:51:16.447Z,17.80
2018-08-28T00:52:19.850Z,17.70
2018-08-28T00:53:23.119Z,17.80
2018-08-28T00:54:26.440Z,17.80
2018-08-28T00:55:29.826Z,17.80
2018-08-28T00:56:33.142Z,17.70
2018-08-28T00:57:36.455Z,17.70
2018-08-28T00:58:39.812Z,17.70
2018-08-28T00:59:43.143Z,17.70
2018-08-28T01:00:46.579Z,17.50
2018-08-28T01:01:49.910Z,17.60
2018-08-28T01:02:53.218Z,17.60
2018-08-28T01:03:56.554Z,17.60
2018-08-28T01:04:59.886Z,17.60
2018-08-28T01:06:03.206Z,17.60
2018-08-28T01:07:06.591Z,17.50
2018-08-28T01:08:09.912Z,17.50
2018-08-28T01:09:13.239Z,17.50
2018-08-28T01:10:16.551Z,17.50
2018-08-28T01:11:19.867Z,17.50
2018-08-28T01:12:23.226Z,17.40
2018-08-28T01:13:26.533Z,17.30
2018-08-28T01:14:29.860Z,17.20
2018-08-28T01:15:33.175Z,17.10
2018-08-28T01:16:36.474Z,17.10
2018-08-28T01:17:39.823Z,17.00
2018-08-28T01:18:43.148Z,17.00
2018-08-28T01:19:46.502Z,17.00
2018-08-28T01:20:56.515Z,16.90
2018-08-28T01:21:59.832Z,16.90
2018-08-28T01:23:03.157Z,16.90
2018-08-28T01:24:06.506Z,16.90
2018-08-28T01:25:09.847Z,16.80
2018-08-28T01:26:13.148Z,16.80
2018-08-28T01:27:16.500Z,16.80
2018-08-28T01:28:19.795Z,16.80
2018-08-28T01:29:23.111Z,16.70
2018-08-28T01:30:31.847Z,16.70
2018-08-28T01:31:35.167Z,16.60
2018-08-28T01:32:38.506Z,16.60
2018-08-28T01:33:41.806Z,16.60
2018-08-28T01:34:45.111Z,16.60
2018-08-28T01:35:48.503Z,16.60
2018-08-28T01:36:51.830Z,16.50
2018-08-28T01:37:55.394Z,16.50
2018-08-28T01:38:58.714Z,16.40
2018-08-28T01:40:02.118Z,16.40
2018-08-28T01:41:05.644Z,16.40
2018-08-28T01:42:08.995Z,16.40
2018-08-28T01:43:30.572Z,16.40
2018-08-28T01:44:33.921Z,16.40
2018-08-28T01:45:37.235Z,16.40
2018-08-28T01:46:40.574Z,16.40
2018-08-28T01:47:43.882Z,16.40
2018-08-28T01:48:47.236Z,16.40
2018-08-28T01:49:51.359Z,16.40
2018-08-28T01:50:54.687Z,16.30
2018-08-28T01:51:58.000Z,16.30
2018-08-28T01:53:01.331Z,16.30
2018-08-28T01:54:04.680Z,16.30
2018-08-28T01:55:08.030Z,16.30
2018-08-28T01:56:11.381Z,16.30
2018-08-28T01:57:14.843Z,16.40
2018-08-28T01:58:18.254Z,16.40
2018-08-28T01:59:21.578Z,16.40
2018-08-28T02:00:24.906Z,16.40
2018-08-28T02:01:28.203Z,16.50
2018-08-28T02:02:31.565Z,16.60
2018-08-28T02:03:34.854Z,16.70
2018-08-28T02:04:38.175Z,16.70
2018-08-28T02:05:41.491Z,16.70
2018-08-28T02:06:44.798Z,16.70
2018-08-28T02:07:48.143Z,16.70
2018-08-28T02:08:51.456Z,16.70
2018-08-28T02:09:54.767Z,16.70
2018-08-28T02:10:58.095Z,16.70
2018-08-28T02:12:01.411Z,16.70
2018-08-28T02:13:04.808Z,16.80
2018-08-28T02:14:08.088Z,16.70
2018-08-28T02:15:11.437Z,16.70
2018-08-28T02:16:14.785Z,16.60
2018-08-28T02:17:18.112Z,16.60
2018-08-28T02:18:21.424Z,16.60
2018-08-28T02:19:24.789Z,16.60
2018-08-28T02:20:28.091Z,16.60
2018-08-28T02:21:31.404Z,16.70
2018-08-28T02:22:34.710Z,16.70
2018-08-28T02:23:38.054Z,16.70
2018-08-28T02:24:41.394Z,16.70
2018-08-28T02:25:44.739Z,16.70
2018-08-28T02:26:48.070Z,16.70
2018-08-28T02:27:51.367Z,16.70
2018-08-28T02:28:54.679Z,16.70
2018-08-28T02:29:58.015Z,16.70
2018-08-28T02:31:01.351Z,16.70
2018-08-28T02:32:04.675Z,16.70
2018-08-28T02:33:07.986Z,16.70
2018-08-28T02:34:11.618Z,16.70
2018-08-28T02:35:14.981Z,16.70
2018-08-28T02:36:18.315Z,16.70
2018-08-28T02:37:21.616Z,16.60
2018-08-28T02:38:24.949Z,16.60
2018-08-28T02:39:28.267Z,16.50
2018-08-28T02:40:31.607Z,16.50
2018-08-28T02:41:34.923Z,16.40
2018-08-28T02:42:38.259Z,16.40
2018-08-28T02:43:41.558Z,16.40
2018-08-28T02:44:44.862Z,16.50
2018-08-28T02:45:48.184Z,16.50
2018-08-28T02:46:51.505Z,16.50
2018-08-28T02:47:54.868Z,16.40
2018-08-28T02:48:58.195Z,16.40
2018-08-28T02:50:01.490Z,16.50
2018-08-28T02:51:04.840Z,16.50
2018-08-28T02:52:08.166Z,16.60
2018-08-28T02:53:11.481Z,16.50
2018-08-28T02:54:14.843Z,16.60
2018-08-28T02:55:18.150Z,16.50
2018-08-28T02:56:21.624Z,16.40
2018-08-28T02:57:24.821Z,16.40
2018-08-28T02:58:28.157Z,16.40
2018-08-28T02:59:31.459Z,16.40
2018-08-28T03:00:34.793Z,16.40
2018-08-28T03:01:38.142Z,16.30
2018-08-28T03:02:41.456Z,16.20
2018-08-28T03:03:44.759Z,16.10
2018-08-28T03:04:48.058Z,16.00
2018-08-28T03:05:51.434Z,16.00
2018-08-28T03:06:54.734Z,16.00
2018-08-28T03:07:58.142Z,16.00
2018-08-28T03:09:01.494Z,15.90
2018-08-28T03:10:04.876Z,15.90
2018-08-28T03:11:08.227Z,15.90
2018-08-28T03:12:11.555Z,15.90
2018-08-28T03:13:14.898Z,16.00
2018-08-28T03:14:18.229Z,16.10
2018-08-28T03:15:21.573Z,16.10
2018-08-28T03:16:24.894Z,16.10
2018-08-28T03:17:28.251Z,16.10
2018-08-28T03:18:31.576Z,16.10
2018-08-28T03:19:34.897Z,16.10
2018-08-28T03:20:38.244Z,16.20
2018-08-28T03:21:41.569Z,16.20
2018-08-28T03:22:44.893Z,16.30
2018-08-28T03:23:48.196Z,16.30
2018-08-28T03:24:51.499Z,16.30
2018-08-28T03:25:54.873Z,16.40
2018-08-28T03:26:58.200Z,16.40
2018-08-28T03:28:01.504Z,16.40
2018-08-28T03:29:04.871Z,16.50
2018-08-28T03:30:08.179Z,16.50
2018-08-28T03:31:11.487Z,16.50
2018-08-28T03:32:14.796Z,16.60
2018-08-28T03:33:18.123Z,16.60
2018-08-28T03:34:21.472Z,16.50
2018-08-28T03:35:24.804Z,16.50
2018-08-28T03:36:34.658Z,16.40
2018-08-28T03:37:37.981Z,16.40
2018-08-28T03:38:41.291Z,16.40
2018-08-28T03:39:44.642Z,16.30
2018-08-28T03:40:47.953Z,16.30
2018-08-28T03:41:51.249Z,16.40
2018-08-28T03:42:54.551Z,16.30
2018-08-28T03:43:57.906Z,16.30
2018-08-28T03:45:01.248Z,16.20
2018-08-28T03:46:04.580Z,16.20
2018-08-28T03:47:07.885Z,16.20
2018-08-28T03:48:11.214Z,16.30
2018-08-28T03:49:14.582Z,16.30
2018-08-28T03:50:17.887Z,16.30
2018-08-28T03:51:21.194Z,16.30
2018-08-28T03:52:24.507Z,16.30
2018-08-28T03:53:27.850Z,16.30
2018-08-28T03:54:31.174Z,16.20
2018-08-28T03:55:34.631Z,16.20
2018-08-28T03:56:37.823Z,16.20
2018-08-28T03:57:41.141Z,16.20
2018-08-28T03:58:44.498Z,16.10
2018-08-28T03:59:47.799Z,16.10
2018-08-28T04:00:51.099Z,16.00
2018-08-28T04:01:54.510Z,16.00
2018-08-28T04:02:57.812Z,16.00
2018-08-28T04:04:01.300Z,16.00
2018-08-28T04:05:04.651Z,16.00
2018-08-28T04:06:07.963Z,15.90
2018-08-28T04:07:11.309Z,15.90
2018-08-28T04:08:14.611Z,15.90
2018-08-28T04:09:17.963Z,16.00
2018-08-28T04:10:21.272Z,16.00
2018-08-28T04:11:24.570Z,16.00
2018-08-28T04:12:27.912Z,16.00
2018-08-28T04:13:31.220Z,16.00
2018-08-28T04:14:34.598Z,16.00
2018-08-28T04:15:37.907Z,16.10
2018-08-28T04:16:41.206Z,16.10
2018-08-28T04:17:49.093Z,16.20
2018-08-28T04:18:52.411Z,16.10
2018-08-28T04:19:55.764Z,16.20
2018-08-28T04:20:59.072Z,16.20
2018-08-28T04:22:02.390Z,16.10
2018-08-28T04:23:06.150Z,16.20
2018-08-28T04:24:09.451Z,16.20
2018-08-28T04:25:12.808Z,16.10
2018-08-28T04:26:16.124Z,16.10
2018-08-28T04:27:19.418Z,16.10
2018-08-28T04:28:22.729Z,16.10
2018-08-28T04:29:26.031Z,16.20
2018-08-28T04:30:29.426Z,16.20
2018-08-28T04:31:32.746Z,16.10
2018-08-28T04:32:36.064Z,16.10
2018-08-28T04:33:39.362Z,16.10
2018-08-28T04:34:42.687Z,16.20
2018-08-28T04:35:45.988Z,16.20
2018-08-28T04:36:49.351Z,16.20
2018-08-28T04:37:52.656Z,16.30
2018-08-28T04:38:55.970Z,16.40
2018-08-28T04:39:59.799Z,16.40
2018-08-28T04:41:03.179Z,16.40
2018-08-28T04:42:06.523Z,16.40
2018-08-28T04:43:09.830Z,16.40
2018-08-28T04:44:13.198Z,16.40
2018-08-28T04:45:16.515Z,16.30
2018-08-28T04:46:19.807Z,16.30
2018-08-28T04:47:23.359Z,16.30
2018-08-28T04:48:26.767Z,16.30
2018-08-28T04:49:30.035Z,16.30
2018-08-28T04:50:33.413Z,16.30
2018-08-28T04:51:36.730Z,16.40
2018-08-28T04:52:40.055Z,16.40
2018-08-28T04:53:43.384Z,16.40
2018-08-28T04:54:46.983Z,16.40
2018-08-28T04:55:56.891Z,16.40
2018-08-28T04:57:00.246Z,16.40
2018-08-28T04:58:03.594Z,16.40
2018-08-28T04:59:06.941Z,16.50
2018-08-28T05:00:10.274Z,16.40
2018-08-28T05:01:13.566Z,16.50
2018-08-28T05:02:16.871Z,16.60
2018-08-28T05:03:20.165Z,16.60
2018-08-28T05:04:23.514Z,16.60
2018-08-28T05:05:26.838Z,16.60
2018-08-28T05:06:30.143Z,16.50
2018-08-28T05:07:33.674Z,16.60
2018-08-28T05:08:36.995Z,16.70
2018-08-28T05:09:40.329Z,16.70
2018-08-28T05:10:43.628Z,16.70
2018-08-28T05:11:47.023Z,16.70
2018-08-28T05:12:50.306Z,16.70
2018-08-28T05:13:53.612Z,16.70
2018-08-28T05:14:56.958Z,16.70
2018-08-28T05:16:00.297Z,16.80
2018-08-28T05:17:03.637Z,16.80
2018-08-28T05:18:06.955Z,16.80
2018-08-28T05:19:10.271Z,16.90
2018-08-28T05:20:13.690Z,16.90
2018-08-28T05:21:16.987Z,16.90
2018-08-28T05:22:20.354Z,16.90
2018-08-28T05:23:23.682Z,16.90
2018-08-28T05:24:26.992Z,16.90
2018-08-28T05:25:30.362Z,16.90
2018-08-28T05:26:33.743Z,17.00
2018-08-28T05:27:43.334Z,17.00
2018-08-28T05:28:46.684Z,16.90
2018-08-28T05:29:49.987Z,16.90
2018-08-28T05:30:53.293Z,16.90
2018-08-28T05:31:56.625Z,16.90
2018-08-28T05:32:59.931Z,17.00
2018-08-28T05:34:03.230Z,17.00
2018-08-28T05:35:06.799Z,17.00
2018-08-28T05:36:10.149Z,17.00
2018-08-28T05:37:13.555Z,17.00
2018-08-28T05:38:16.858Z,17.00
2018-08-28T05:39:20.170Z,17.00
2018-08-28T05:40:23.512Z,17.00
2018-08-28T05:41:26.966Z,17.00
2018-08-28T05:42:30.310Z,17.00
2018-08-28T05:43:33.608Z,17.00
2018-08-28T05:44:37.000Z,17.00
2018-08-28T05:45:40.303Z,17.10
2018-08-28T05:46:43.638Z,17.20
2018-08-28T05:47:46.943Z,17.20
2018-08-28T05:48:50.294Z,17.20
2018-08-28T05:49:53.599Z,17.20
2018-08-28T05:50:56.920Z,17.20
2018-08-28T05:52:00.265Z,17.10
2018-08-28T05:53:03.694Z,17.20
2018-08-28T05:54:07.159Z,17.20
2018-08-28T05:55:10.471Z,17.20
2018-08-28T05:56:13.806Z,17.20
2018-08-28T05:57:17.111Z,17.10
2018-08-28T05:58:20.563Z,17.20
2018-08-28T05:59:23.927Z,17.10
2018-08-28T06:00:27.241Z,17.20
2018-08-28T06:01:30.550Z,17.20
2018-08-28T06:02:33.862Z,17.20
2018-08-28T06:03:37.378Z,17.20
2018-08-28T06:04:40.527Z,17.20
2018-08-28T06:05:44.354Z,17.20
2018-08-28T06:06:47.667Z,17.20
2018-08-28T06:07:50.995Z,17.20
2018-08-28T06:08:54.459Z,17.10
2018-08-28T06:09:57.879Z,17.10
2018-08-28T06:11:01.183Z,17.00
2018-08-28T06:12:04.493Z,17.00
2018-08-28T06:13:07.847Z,17.00
2018-08-28T06:14:11.283Z,17.00
2018-08-28T06:15:14.599Z,17.10
2018-08-28T06:16:17.951Z,17.20
2018-08-28T06:17:21.275Z,17.20
2018-08-28T06:18:24.708Z,17.20
2018-08-28T06:19:28.047Z,17.20
2018-08-28T06:20:31.334Z,17.20
2018-08-28T06:21:34.642Z,17.30
2018-08-28T06:22:38.002Z,17.30
2018-08-28T06:23:41.326Z,17.40
2018-08-28T06:24:44.660Z,17.40
2018-08-28T06:25:47.979Z,17.40
2018-08-28T06:26:51.280Z,17.50
2018-08-28T06:27:54.646Z,17.50
2018-08-28T06:28:57.996Z,17.40
2018-08-28T06:30:01.319Z,17.50
2018-08-28T06:31:04.778Z,17.60
2018-08-28T06:32:08.095Z,17.50
2018-08-28T06:33:11.403Z,17.60
2018-08-28T06:34:14.749Z,17.50
2018-08-28T06:35:18.082Z,17.60
2018-08-28T06:36:21.442Z,17.70
2018-08-28T06:37:24.818Z,17.70
2018-08-28T06:38:28.099Z,17.80
2018-08-28T06:39:31.648Z,17.70
2018-08-28T06:41:44.606Z,17.80
2018-08-28T06:42:47.912Z,17.90
2018-08-28T06:43:51.269Z,17.90
2018-08-28T06:44:54.583Z,17.90
2018-08-28T06:45:57.894Z,17.90
2018-08-28T06:47:01.531Z,17.90
2018-08-28T06:48:04.872Z,17.90
2018-08-28T06:49:08.193Z,17.90
2018-08-28T06:50:11.496Z,17.90
2018-08-28T06:51:14.823Z,17.90
2018-08-28T06:52:18.138Z,17.90
2018-08-28T06:53:21.515Z,17.90
2018-08-28T06:54:24.885Z,17.90
2018-08-28T06:55:28.183Z,18.00
2018-08-28T06:56:31.510Z,17.80
2018-08-28T06:57:34.862Z,17.80
2018-08-28T06:58:38.171Z,17.80
2018-08-28T06:59:41.510Z,17.80
2018-08-28T07:00:44.827Z,17.80
2018-08-28T07:01:48.379Z,17.80
2018-08-28T07:02:51.690Z,17.90
2018-08-28T07:06:00.843Z,18.00
2018-08-28T07:07:04.159Z,18.10
2018-08-28T07:08:07.537Z,18.00
2018-08-28T07:09:10.843Z,18.00
2018-08-28T07:10:14.266Z,18.00
2018-08-28T07:11:17.531Z,17.90
2018-08-28T07:12:20.891Z,17.90
2018-08-28T07:13:24.212Z,18.00
2018-08-28T07:14:27.537Z,18.00
2018-08-28T07:15:30.890Z,18.10
2018-08-28T07:16:34.438Z,18.10
2018-08-28T07:17:37.755Z,18.10
2018-08-28T07:18:41.171Z,18.10
2018-08-28T07:19:44.495Z,18.10
2018-08-28T07:20:47.843Z,18.10
2018-08-28T07:21:51.188Z,18.10
2018-08-28T07:22:54.600Z,18.20
2018-08-28T07:23:58.142Z,18.20
2018-08-28T07:25:01.500Z,18.10
2018-08-28T07:26:04.916Z,18.20
2018-08-28T07:27:08.269Z,18.20
2018-08-28T07:28:11.566Z,18.20
2018-08-28T07:29:14.903Z,18.10
2018-08-28T07:30:18.220Z,18.10
2018-08-28T07:31:21.606Z,18.10
2018-08-28T07:32:24.873Z,18.00
2018-08-28T07:33:28.180Z,18.10
2018-08-28T07:34:31.524Z,18.10
2018-08-28T07:35:34.832Z,18.00
2018-08-28T07:36:38.163Z,18.00
2018-08-28T07:37:41.496Z,18.10
2018-08-28T07:38:44.804Z,18.10
2018-08-28T07:39:48.132Z,18.20
2018-08-28T07:40:51.502Z,18.30
2018-08-28T07:41:54.808Z,18.30
2018-08-28T07:42:58.174Z,18.30
2018-08-28T07:44:01.488Z,18.30
2018-08-28T07:45:04.879Z,18.40
2018-08-28T07:46:08.196Z,18.40
2018-08-28T07:47:11.557Z,18.40
2018-08-28T07:48:14.964Z,18.50
2018-08-28T07:49:18.303Z,18.50
2018-08-28T07:50:21.610Z,18.50
2018-08-28T07:51:24.939Z,18.50
2018-08-28T07:52:28.239Z,18.60
2018-08-28T07:53:31.586Z,18.60
2018-08-28T07:54:34.903Z,18.60
2018-08-28T07:55:38.230Z,18.70
2018-08-28T07:56:41.542Z,18.70
2018-08-28T07:57:44.850Z,18.80
2018-08-28T07:58:48.200Z,18.70
2018-08-28T07:59:51.510Z,18.80
2018-08-28T08:00:54.860Z,18.80
2018-08-28T08:01:58.235Z,18.90
2018-08-28T08:03:01.539Z,19.00
2018-08-28T08:04:05.106Z,19.00
2018-08-28T08:05:08.406Z,19.00
2018-08-28T08:06:11.742Z,19.00
2018-08-28T08:07:15.046Z,19.00
2018-08-28T08:08:18.575Z,19.00
2018-08-28T08:09:21.919Z,19.10
2018-08-28T08:10:25.233Z,19.00
2018-08-28T08:11:28.580Z,19.10
2018-08-28T08:12:31.879Z,19.20
2018-08-28T08:13:38.200Z,19.10
2018-08-28T08:14:41.526Z,19.30
2018-08-28T08:15:44.926Z,19.30
2018-08-28T08:16:48.157Z,19.20
2018-08-28T08:17:51.462Z,19.30
2018-08-28T08:18:54.813Z,19.20
2018-08-28T08:19:58.116Z,19.20
2018-08-28T08:21:01.431Z,19.20
2018-08-28T08:22:04.786Z,19.20
2018-08-28T08:23:08.127Z,19.20
2018-08-28T08:24:11.487Z,19.20
2018-08-28T08:25:14.807Z,19.10
2018-08-28T08:26:18.218Z,19.20
2018-08-28T08:27:21.524Z,19.20
2018-08-28T08:28:24.883Z,19.20
2018-08-28T08:29:28.191Z,19.30
2018-08-28T08:30:31.579Z,19.20
2018-08-28T08:31:34.894Z,19.20
2018-08-28T08:32:38.227Z,19.10
2018-08-28T08:33:41.545Z,19.20
2018-08-28T08:34:44.875Z,19.20
2018-08-28T08:35:48.239Z,19.30
2018-08-28T08:36:54.594Z,19.40
2018-08-28T08:37:57.894Z,19.50
2018-08-28T08:39:01.199Z,19.40
2018-08-28T08:40:04.562Z,19.50
2018-08-28T08:41:07.871Z,19.50
2018-08-28T08:42:11.319Z,19.50
2018-08-28T08:43:14.563Z,19.70
2018-08-28T08:44:17.916Z,19.80
2018-08-28T08:45:21.274Z,19.90
2018-08-28T08:46:24.627Z,19.90
2018-08-28T08:47:27.959Z,20.00
2018-08-28T08:48:31.274Z,20.10
2018-08-28T08:49:34.609Z,20.10
2018-08-28T08:50:37.958Z,20.10
2018-08-28T08:51:41.280Z,20.20
2018-08-28T08:52:44.842Z,20.10
2018-08-28T08:53:48.417Z,20.20
2018-08-28T08:54:51.882Z,20.10
2018-08-28T08:55:55.151Z,20.00
2018-08-28T08:56:58.468Z,20.00
2018-08-28T08:58:01.772Z,19.90
2018-08-28T08:59:05.096Z,19.80
2018-08-28T09:00:08.454Z,19.80
2018-08-28T09:01:11.836Z,19.90
2018-08-28T09:02:15.158Z,20.00
2018-08-28T09:03:18.475Z,20.00
2018-08-28T09:04:21.805Z,20.10
2018-08-28T09:05:25.183Z,20.30
2018-08-28T09:06:28.566Z,20.30
2018-08-28T09:07:31.883Z,20.50
2018-08-28T09:08:35.202Z,20.50
2018-08-28T09:09:38.507Z,20.50
2018-08-28T09:10:41.816Z,20.50
2018-08-28T09:11:45.200Z,20.50
2018-08-28T09:12:49.051Z,20.70
2018-08-28T09:13:52.374Z,20.90
2018-08-28T09:14:55.930Z,20.90
2018-08-28T09:15:59.239Z,21.10
2018-08-28T09:17:02.589Z,21.20
2018-08-28T09:18:06.185Z,21.50
2018-08-28T09:19:09.508Z,21.50
2018-08-28T09:20:12.892Z,21.60
2018-08-28T09:21:16.230Z,21.60
2018-08-28T09:22:19.542Z,21.80
2018-08-28T09:23:22.896Z,21.70
2018-08-28T09:24:26.222Z,21.70
2018-08-28T09:25:29.543Z,21.90
2018-08-28T09:26:32.843Z,22.70
2018-08-28T09:27:36.194Z,22.20
2018-08-28T09:28:39.559Z,22.20
2018-08-28T09:29:42.866Z,22.30
2018-08-28T09:30:46.178Z,22.40
2018-08-28T09:31:49.534Z,22.40
2018-08-28T09:32:52.883Z,22.40
2018-08-28T09:33:56.215Z,22.60
2018-08-28T09:34:59.518Z,22.60
2018-08-28T09:36:02.826Z,22.60
2018-08-28T09:37:06.163Z,22.80
2018-08-28T09:38:09.468Z,23.10
2018-08-28T09:39:12.823Z,23.40
2018-08-28T09:40:16.178Z,23.30
2018-08-28T09:41:19.497Z,23.30
2018-08-28T09:42:22.807Z,23.40
2018-08-28T09:43:26.132Z,23.70
2018-08-28T09:44:29.480Z,23.80
2018-08-28T09:45:32.812Z,24.00
2018-08-28T09:46:36.127Z,24.30
2018-08-28T09:47:39.423Z,24.30
2018-08-28T09:48:42.735Z,24.30
2018-08-28T09:49:46.139Z,24.30
2018-08-28T09:50:49.437Z,24.20
2018-08-28T09:51:52.791Z,24.40
2018-08-28T09:52:56.095Z,24.50
2018-08-28T09:53:59.395Z,24.50
2018-08-28T09:55:02.768Z,24.50
2018-08-28T09:56:06.394Z,24.30
2018-08-28T09:57:09.725Z,24.20
2018-08-28T09:58:13.019Z,24.10
2018-08-28T09:59:16.327Z,23.90
2018-08-28T10:00:25.051Z,23.60
2018-08-28T10:01:33.605Z,23.60
2018-08-28T10:02:36.982Z,23.50
2018-08-28T10:03:40.278Z,23.40
2018-08-28T10:04:50.299Z,23.30
2018-08-28T10:05:53.608Z,23.10
2018-08-28T10:06:56.935Z,23.00
2018-08-28T10:08:00.244Z,22.80
2018-08-28T10:09:03.631Z,22.70
2018-08-28T10:10:06.983Z,22.70
2018-08-28T10:11:10.293Z,22.50
2018-08-28T10:12:13.592Z,22.30
2018-08-28T10:13:16.949Z,22.20
2018-08-28T10:14:20.254Z,22.10
2018-08-28T10:15:23.631Z,22.00
2018-08-28T10:16:26.975Z,21.90
2018-08-28T10:17:30.312Z,21.90
2018-08-28T10:18:33.639Z,22.00
2018-08-28T10:19:36.974Z,21.90
2018-08-28T10:20:40.289Z,22.00
2018-08-28T10:21:43.587Z,22.10
2018-08-28T10:22:46.944Z,22.20
2018-08-28T10:23:50.284Z,22.30
2018-08-28T10:24:53.596Z,22.50
2018-08-28T10:25:56.903Z,22.90
2018-08-28T10:27:00.208Z,23.00
2018-08-28T10:28:03.571Z,23.10
2018-08-28T10:29:06.879Z,23.20
2018-08-28T10:30:10.216Z,23.40
2018-08-28T10:31:13.523Z,23.20
2018-08-28T10:32:16.887Z,23.00
2018-08-28T10:33:20.211Z,23.00
2018-08-28T10:34:23.559Z,22.70
2018-08-28T10:35:26.908Z,22.60
2018-08-28T10:36:30.280Z,22.50
2018-08-28T10:37:34.449Z,22.50
2018-08-28T10:38:37.761Z,22.50
2018-08-28T10:39:41.114Z,22.50
2018-08-28T10:40:44.485Z,22.60
2018-08-28T10:41:47.804Z,22.70
2018-08-28T10:42:51.180Z,22.70
2018-08-28T10:43:54.496Z,22.70
2018-08-28T10:44:57.855Z,22.80
2018-08-28T10:46:01.212Z,22.80
2018-08-28T10:47:04.554Z,22.90
2018-08-28T10:48:07.994Z,23.00
2018-08-28T10:49:11.299Z,23.00
2018-08-28T10:50:14.644Z,23.00
2018-08-28T10:51:18.285Z,23.10
2018-08-28T10:52:21.607Z,23.20
2018-08-28T10:53:24.963Z,23.10
2018-08-28T10:54:28.327Z,23.20
2018-08-28T10:55:31.632Z,23.20
2018-08-28T10:56:34.938Z,23.20
2018-08-28T10:57:38.270Z,23.20
2018-08-28T10:58:41.632Z,23.30
2018-08-28T10:59:44.982Z,23.10
2018-08-28T11:00:48.526Z,23.10
2018-08-28T11:01:51.900Z,23.10
2018-08-28T11:02:55.215Z,23.10
2018-08-28T11:03:58.559Z,23.10
2018-08-28T11:05:01.881Z,22.90
2018-08-28T11:06:05.195Z,23.00
2018-08-28T11:07:08.497Z,23.10
2018-08-28T11:08:11.835Z,23.10
2018-08-28T11:09:15.135Z,23.20
2018-08-28T11:10:18.450Z,23.40
2018-08-28T11:11:21.806Z,23.50
2018-08-28T11:12:25.114Z,23.70
2018-08-28T11:13:28.454Z,23.90
2018-08-28T11:14:31.799Z,24.00
2018-08-28T11:15:35.115Z,24.20
2018-08-28T11:16:38.460Z,24.30
2018-08-28T11:17:41.791Z,24.40
2018-08-28T11:18:45.118Z,24.10
2018-08-28T11:19:48.467Z,23.90
2018-08-28T11:20:51.806Z,23.70
2018-08-28T11:21:55.145Z,23.50
2018-08-28T11:22:58.565Z,23.50
2018-08-28T11:24:01.802Z,23.30
2018-08-28T11:25:05.153Z,23.30
2018-08-28T11:27:48.732Z,23.30
2018-08-28T11:28:52.048Z,23.50
2018-08-28T11:29:55.391Z,23.40
2018-08-28T11:30:58.731Z,23.50
2018-08-28T11:32:02.060Z,23.60
2018-08-28T11:33:05.467Z,23.70
2018-08-28T11:34:08.860Z,23.80
2018-08-28T11:35:12.216Z,23.60
2018-08-28T11:36:22.214Z,23.90
2018-08-28T11:37:25.530Z,23.80
2018-08-28T11:38:28.952Z,23.90
2018-08-28T11:39:32.212Z,23.90
2018-08-28T11:40:35.556Z,23.90
2018-08-28T11:41:38.867Z,24.00
2018-08-28T11:42:42.225Z,24.00
2018-08-28T11:43:45.683Z,23.50
2018-08-28T11:44:49.014Z,23.30
2018-08-28T11:45:52.373Z,23.40
2018-08-28T11:46:55.722Z,23.50
2018-08-28T11:47:59.031Z,23.60
2018-08-28T11:49:02.373Z,23.70
2018-08-28T11:50:05.712Z,23.80
2018-08-28T11:51:09.100Z,23.70
2018-08-28T11:52:12.517Z,23.80
2018-08-28T11:53:15.914Z,23.90
2018-08-28T11:54:19.256Z,24.00
2018-08-28T11:56:32.225Z,24.10
2018-08-28T11:57:35.671Z,24.20
2018-08-28T11:58:38.996Z,24.10
2018-08-28T11:59:42.314Z,24.10
2018-08-28T12:00:45.659Z,24.10
2018-08-28T12:01:49.000Z,24.20
2018-08-28T12:02:52.388Z,24.30
2018-08-28T12:03:55.720Z,24.30
2018-08-28T12:04:59.064Z,24.40
2018-08-28T12:06:02.359Z,24.50
2018-08-28T12:07:05.832Z,24.50
2018-08-28T12:08:09.153Z,24.50
2018-08-28T12:09:12.720Z,24.60
2018-08-28T12:10:16.068Z,24.60
2018-08-28T12:11:19.420Z,24.60
2018-08-28T12:12:22.730Z,24.60
2018-08-28T12:13:26.036Z,24.70
2018-08-28T12:14:29.368Z,24.60
2018-08-28T12:15:39.019Z,24.20
2018-08-28T12:16:42.323Z,24.30
2018-08-28T12:17:45.635Z,24.20
2018-08-28T12:18:48.989Z,24.20
2018-08-28T12:19:52.311Z,24.20
2018-08-28T12:20:55.759Z,24.20
2018-08-28T12:21:59.008Z,24.20
2018-08-28T12:23:02.316Z,24.30
2018-08-28T12:24:05.704Z,24.10
2018-08-28T12:25:09.557Z,24.20
2018-08-28T12:26:12.875Z,24.10
2018-08-28T12:27:16.204Z,24.10
2018-08-28T12:28:19.510Z,24.10
2018-08-28T12:29:22.837Z,24.20
2018-08-28T12:30:32.815Z,24.30
2018-08-28T12:31:36.142Z,24.20
2018-08-28T12:32:39.489Z,24.20
2018-08-28T12:33:42.795Z,24.30
2018-08-28T12:34:46.103Z,24.40
2018-08-28T12:35:49.443Z,24.50
2018-08-28T12:36:52.892Z,24.60
2018-08-28T12:37:56.125Z,24.30
2018-08-28T12:38:59.487Z,24.00
2018-08-28T12:40:02.885Z,24.00
2018-08-28T12:41:06.270Z,24.10
2018-08-28T12:42:09.666Z,24.00
2018-08-28T12:43:13.020Z,23.90
2018-08-28T12:44:16.325Z,23.80
2018-08-28T12:45:19.698Z,23.90
2018-08-28T12:46:23.043Z,23.90
2018-08-28T12:47:26.368Z,24.10
2018-08-28T12:48:29.683Z,24.10
2018-08-28T12:49:32.987Z,24.20
2018-08-28T12:50:36.331Z,24.30
2018-08-28T12:51:39.750Z,24.40
2018-08-28T12:52:43.062Z,24.30
2018-08-28T12:53:46.385Z,24.20
2018-08-28T12:54:49.827Z,24.30
2018-08-28T12:55:53.199Z,24.40
2018-08-28T12:56:56.522Z,24.30
2018-08-28T12:57:59.839Z,24.30
2018-08-28T12:59:03.196Z,24.30
2018-08-28T13:00:06.635Z,24.40
2018-08-28T13:01:09.947Z,24.50
2018-08-28T13:02:13.300Z,24.50
2018-08-28T13:03:16.638Z,24.60
2018-08-28T13:04:19.987Z,24.40
2018-08-28T13:05:23.328Z,24.50
2018-08-28T13:06:26.898Z,24.70
2018-08-28T13:07:30.306Z,24.80
2018-08-28T13:08:33.571Z,24.80
2018-08-28T13:09:43.574Z,24.70
2018-08-28T13:10:46.878Z,24.80
2018-08-28T13:11:50.247Z,24.90
2018-08-28T13:12:53.564Z,25.00
2018-08-28T13:13:57.006Z,25.00
2018-08-28T13:15:00.344Z,25.10
2018-08-28T13:16:03.670Z,25.20
2018-08-28T13:17:07.011Z,25.50
2018-08-28T13:18:10.320Z,25.50
2018-08-28T13:19:13.670Z,25.60
2018-08-28T13:20:16.978Z,25.90
2018-08-28T13:21:20.299Z,26.00
2018-08-28T13:22:23.646Z,26.20
2018-08-28T13:23:26.963Z,26.20
2018-08-28T13:24:30.306Z,26.20
2018-08-28T13:25:33.695Z,26.30
2018-08-28T15:04:27.787Z,27.20
2018-08-28T15:05:31.431Z,27.20
2018-08-28T15:06:35.191Z,27.60
2018-08-28T15:07:38.703Z,27.90
2018-08-28T15:08:42.129Z,27.80
2018-08-28T15:09:45.954Z,28.00
2018-08-28T15:10:56.174Z,28.00
2018-08-28T15:11:59.710Z,27.90
2018-08-28T15:13:03.301Z,28.00
2018-08-28T15:14:06.847Z,27.90
2018-08-28T15:15:10.643Z,27.80
2018-08-28T15:16:14.317Z,27.70
2018-08-28T15:17:18.073Z,27.60
2018-08-28T15:18:21.915Z,27.60
2018-08-28T15:19:25.615Z,27.70
2018-08-28T15:20:29.241Z,27.50
2018-08-28T15:21:32.953Z,27.70